createdAt,value
2022-11-10T06:20:51.589Z,27.70
2022-11-10T06:23:25.083Z,21.80
2022-11-10T06:25:58.749Z,28.17
2022-11-10T06:28:52.419Z,25.38
2022-11-10T06:31:36.225Z,21.25
2022-11-10T06:34:04.937Z,24.58
2022-11-10T06:36:41.629Z,24.45
2022-11-10T06:39:55.733Z,22.23
2022-11-10T06:50:55.506Z,29.77
2022-11-10T06:53:41.560Z,25.95
2022-11-10T06:56:17.686Z,27.60
2022-11-10T06:58:57.038Z,24.23
2022-11-10T07:13:29.079Z,24.63
2022-11-10T07:42:04.920Z,23.88
2022-11-10T07:45:04.924Z,26.25
2022-11-10T07:48:06.223Z,27.05
2022-11-10T07:50:56.979Z,22.88
2022-11-10T07:53:31.784Z,23.85
2022-11-10T10:19:46.802Z,15.48
2022-11-10T10:51:01.983Z,18.77
2022-11-10T10:54:54.774Z,18.40
2022-11-10T11:13:54.927Z,19.27
2022-11-10T11:30:11.483Z,17.70
2022-11-10T11:44:16.600Z,13.18
2022-11-10T12:01:38.225Z,17.27
2022-11-10T12:05:33.209Z,23.50
2022-11-10T12:25:22.152Z,21.23
2022-11-10T12:35:55.270Z,15.15
2022-11-10T12:39:11.896Z,15.68
2022-11-10T12:42:07.982Z,15.20
2022-11-10T12:45:06.513Z,13.30
2022-11-10T12:48:06.682Z,16.75
2022-11-10T12:55:54.817Z,17.58
2022-11-10T12:58:55.190Z,14.95
2022-11-10T13:01:53.886Z,18.30
2022-11-10T13:18:03.846Z,11.73
2022-11-10T13:24:52.531Z,12.70
2022-11-10T13:27:58.539Z,21.52
2022-11-10T13:31:19.430Z,18.83
2022-11-10T13:49:47.238Z,11.98
2022-11-10T14:15:36.225Z,12.68
2022-11-10T14:22:54.727Z,13.85
2022-11-10T14:29:26.786Z,13.15
2022-11-10T14:33:21.573Z,11.40
2022-11-10T15:09:23.031Z,13.05
2022-11-10T15:39:09.609Z,10.45
2022-11-10T16:00:54.567Z,7.90
2022-11-10T16:03:53.301Z,9.10
2022-11-10T16:06:24.740Z,10.25
2022-11-10T16:09:21.961Z,9.80
2022-11-10T16:11:53.075Z,7.10
2022-11-10T16:14:35.337Z,9.10
2022-11-10T16:17:05.603Z,8.13
2022-11-10T16:19:35.216Z,11.23
2022-11-10T16:22:07.577Z,6.25
2022-11-10T16:24:36.445Z,9.55
2022-11-10T16:27:12.262Z,14.00
2022-11-10T16:29:50.007Z,12.38
2022-11-10T16:32:45.558Z,9.35
2022-11-10T16:35:14.912Z,7.53
2022-11-10T16:37:57.165Z,7.53
2022-11-10T16:40:29.893Z,12.10
2022-11-10T16:43:10.965Z,10.10
2022-11-10T16:45:56.694Z,10.80
2022-11-10T16:48:58.519Z,11.90
2022-11-10T16:51:35.044Z,6.90
2022-11-10T16:57:45.246Z,10.77
2022-11-10T17:00:16.072Z,9.60
2022-11-10T17:02:51.726Z,11.13
2022-11-10T17:05:27.440Z,11.63
2022-11-10T17:08:10.521Z,8.75
2022-11-10T17:11:20.540Z,13.18
2022-11-10T17:14:09.404Z,8.90
2022-11-10T17:18:04.575Z,10.20
2022-11-10T17:33:11.234Z,9.93
2022-11-10T17:36:24.932Z,7.32
2022-11-10T17:48:04.139Z,10.13
2022-11-10T17:51:07.061Z,11.68
2022-11-10T17:53:53.905Z,14.60
2022-11-10T17:56:32.963Z,10.55
2022-11-10T17:59:18.985Z,11.55
2022-11-10T18:02:04.630Z,9.88
2022-11-10T18:10:31.358Z,11.73
2022-11-10T18:13:05.084Z,11.75
2022-11-10T18:15:47.795Z,11.32
2022-11-10T18:18:25.840Z,10.95
2022-11-10T18:21:24.319Z,14.75
2022-11-10T18:23:53.947Z,13.40
2022-11-10T18:26:24.468Z,12.77
2022-11-10T18:28:55.472Z,10.68
2022-11-10T18:31:24.237Z,12.02
2022-11-10T18:33:55.891Z,12.30
2022-11-10T18:36:25.606Z,10.52
2022-11-10T18:38:54.202Z,9.45
2022-11-10T18:41:44.876Z,14.40
2022-11-10T18:44:20.807Z,14.43
2022-11-10T18:46:50.788Z,15.15
2022-11-10T18:49:20.994Z,12.68
2022-11-10T18:51:50.728Z,16.40
2022-11-10T18:54:20.774Z,15.57
2022-11-10T18:57:00.091Z,16.92
2022-11-10T18:59:29.797Z,15.05
2022-11-10T19:02:04.138Z,15.30
2022-11-10T19:04:35.617Z,15.25
2022-11-10T19:14:38.231Z,12.02
2022-11-10T19:17:25.794Z,15.38
2022-11-10T19:20:56.420Z,12.45
2022-11-10T19:29:26.645Z,15.02
2022-11-10T19:32:04.567Z,12.13
2022-11-10T19:34:41.141Z,13.55
2022-11-10T19:37:33.352Z,12.50
2022-11-10T19:40:16.041Z,12.57
2022-11-10T19:50:49.418Z,12.73
2022-11-10T19:54:14.760Z,14.18
2022-11-10T20:39:24.840Z,15.25
2022-11-10T20:42:02.359Z,17.67
2022-11-10T20:44:51.693Z,16.42
2022-11-10T20:47:38.183Z,21.02
2022-11-10T20:50:16.278Z,19.02
2022-11-10T21:00:33.093Z,19.23
2022-11-10T21:03:07.100Z,19.63
2022-11-10T21:08:33.443Z,19.52
2022-11-10T21:11:58.849Z,19.17
2022-11-10T21:14:38.826Z,22.35
2022-11-10T21:17:08.064Z,18.73
2022-11-10T21:19:49.594Z,15.98
2022-11-10T21:22:20.676Z,17.88
2022-11-10T21:24:56.820Z,19.15
2022-11-10T21:27:29.773Z,16.35
2022-11-10T21:30:29.354Z,19.15
2022-11-10T21:32:57.682Z,21.25
2022-11-10T21:35:26.130Z,22.80
2022-11-10T21:37:56.960Z,17.08
2022-11-10T21:40:39.872Z,19.35
2022-11-10T21:47:42.313Z,17.50
2022-11-10T21:56:51.562Z,18.23
2022-11-10T22:07:57.574Z,19.55
2022-11-10T22:10:43.695Z,18.77
2022-11-10T22:21:32.465Z,20.08
2022-11-10T22:24:27.116Z,18.88
2022-11-10T22:26:58.655Z,17.52
2022-11-10T22:29:33.589Z,19.90
2022-11-10T22:32:09.986Z,23.60
2022-11-10T22:38:46.704Z,17.85
2022-11-10T22:52:42.764Z,22.23
2022-11-10T22:59:51.640Z,24.40
2022-11-10T23:18:38.294Z,24.40
2022-11-10T23:22:00.258Z,25.13
2022-11-10T23:24:54.260Z,28.77
2022-11-10T23:30:51.298Z,24.67
2022-11-10T23:33:42.839Z,29.15
2022-11-10T23:36:30.148Z,29.05
2022-11-10T23:39:18.109Z,32.70
2022-11-10T23:41:57.237Z,28.17
2022-11-10T23:48:06.885Z,33.92
2022-11-10T23:50:49.507Z,28.45
2022-11-10T23:53:43.863Z,29.90
